createdAt,value
2019-02-28T00:01:39.675Z,101041.89
2019-02-28T00:04:10.210Z,101042.17
2019-02-28T00:06:39.838Z,101041.64
2019-02-28T00:09:11.095Z,101035.78
2019-02-28T00:11:40.733Z,101027.74
2019-02-28T00:14:10.529Z,101023.59
2019-02-28T00:16:40.018Z,101026.94
2019-02-28T00:19:09.716Z,101021.95
2019-02-28T00:21:40.557Z,101022.11
2019-02-28T00:24:10.774Z,101013.14
2019-02-28T00:26:46.527Z,101005.35
2019-02-28T00:29:11.661Z,101000.74
2019-02-28T00:31:42.021Z,101003.09
2019-02-28T00:34:11.507Z,100994.65
2019-02-28T00:36:41.496Z,100995.97
2019-02-28T00:39:10.997Z,100990.01
2019-02-28T00:41:44.278Z,100986.36
2019-02-28T00:44:14.133Z,100986.36
2019-02-28T00:46:45.163Z,100988.39
2019-02-28T00:49:14.922Z,100985.44
2019-02-28T00:51:46.112Z,100994.43
2019-02-28T00:54:15.764Z,100985.14
2019-02-28T00:56:45.224Z,100985.66
2019-02-28T00:59:14.774Z,100974.22
2019-02-28T01:01:48.059Z,100972.55
2019-02-28T01:04:17.778Z,100971.23
2019-02-28T01:06:47.663Z,100961.91
2019-02-28T01:09:17.984Z,100954.70
2019-02-28T01:11:48.468Z,100938.83
2019-02-28T01:14:18.588Z,100939.09
2019-02-28T01:16:50.264Z,100941.80
2019-02-28T01:19:19.477Z,100934.95
2019-02-28T01:21:49.406Z,100934.52
2019-02-28T01:24:19.193Z,100928.10
2019-02-28T01:26:49.195Z,100933.57
2019-02-28T01:29:18.826Z,100926.81
2019-02-28T01:31:49.268Z,100928.25
2019-02-28T01:34:19.723Z,100932.69
2019-02-28T01:36:49.628Z,100929.92
2019-02-28T01:39:19.275Z,100921.50
2019-02-28T01:41:50.027Z,100925.48
2019-02-28T01:44:20.564Z,100922.84
2019-02-28T01:46:50.223Z,100916.67
2019-02-28T01:49:20.203Z,100917.66
2019-02-28T01:51:50.147Z,100924.30
2019-02-28T01:54:19.796Z,100920.08
2019-02-28T01:56:49.438Z,100912.91
2019-02-28T01:59:21.576Z,100912.23
2019-02-28T02:01:51.098Z,100909.64
2019-02-28T02:04:20.776Z,100909.70
2019-02-28T02:06:51.278Z,100910.70
2019-02-28T02:09:21.183Z,100918.69
2019-02-28T02:11:50.671Z,100915.77
2019-02-28T02:14:20.255Z,100906.56
2019-02-28T02:16:49.750Z,100911.95
2019-02-28T02:19:21.140Z,100907.16
2019-02-28T02:21:51.561Z,100903.38
2019-02-28T02:24:21.090Z,100902.09
2019-02-28T02:26:51.314Z,100894.42
2019-02-28T02:29:20.811Z,100892.95
2019-02-28T02:31:50.985Z,100892.83
2019-02-28T02:34:24.311Z,100891.20
2019-02-28T02:36:54.481Z,100892.42
2019-02-28T02:39:25.108Z,100889.99
2019-02-28T02:41:54.656Z,100887.90
2019-02-28T02:44:30.694Z,100885.95
2019-02-28T02:46:56.918Z,100883.45
2019-02-28T02:49:28.127Z,100885.30
2019-02-28T02:51:57.648Z,100879.53
2019-02-28T02:54:27.496Z,100871.92
2019-02-28T02:56:57.215Z,100868.80
2019-02-28T02:59:27.054Z,100862.05
2019-02-28T03:01:57.236Z,100855.09
2019-02-28T03:04:27.011Z,100854.47
2019-02-28T03:06:56.779Z,100853.15
2019-02-28T03:09:26.352Z,100845.86
2019-02-28T03:11:57.759Z,100847.86
2019-02-28T03:14:28.729Z,100846.70
2019-02-28T03:16:59.227Z,100847.55
2019-02-28T03:19:33.491Z,100846.23
2019-02-28T03:22:02.427Z,100831.29
2019-02-28T03:24:32.414Z,100839.91
2019-02-28T03:27:02.092Z,100835.09
2019-02-28T03:29:32.705Z,100834.78
2019-02-28T03:32:02.275Z,100840.44
2019-02-28T03:34:34.151Z,100834.95
2019-02-28T03:37:03.851Z,100838.80
2019-02-28T03:39:35.807Z,100830.33
2019-02-28T03:42:05.569Z,100826.67
2019-02-28T03:44:40.561Z,100819.67
2019-02-28T03:47:11.178Z,100813.54
2019-02-28T03:49:48.388Z,100812.86
2019-02-28T03:52:12.728Z,100812.68
2019-02-28T03:54:42.735Z,100813.33
2019-02-28T03:57:13.729Z,100816.47
2019-02-28T03:59:43.975Z,100829.20
2019-02-28T04:02:21.082Z,100813.42
2019-02-28T04:04:50.154Z,100815.89
2019-02-28T04:07:17.074Z,100816.88
2019-02-28T04:09:46.949Z,100811.20
2019-02-28T04:12:19.229Z,100812.31
2019-02-28T04:14:48.904Z,100807.46
2019-02-28T04:17:18.570Z,100806.70
2019-02-28T04:19:49.134Z,100805.58
2019-02-28T04:22:22.705Z,100799.13
2019-02-28T04:24:51.189Z,100801.62
2019-02-28T04:27:20.917Z,100791.69
2019-02-28T04:29:50.625Z,100783.41
2019-02-28T04:32:26.400Z,100772.42
2019-02-28T04:34:51.797Z,100772.23
2019-02-28T04:37:22.168Z,100769.05
2019-02-28T04:39:53.337Z,100769.73
2019-02-28T04:42:23.246Z,100774.02
2019-02-28T04:44:52.928Z,100774.02
2019-02-28T04:47:23.763Z,100766.09
2019-02-28T04:49:53.587Z,100764.27
2019-02-28T04:52:25.945Z,100765.07
2019-02-28T04:54:56.128Z,100768.67
2019-02-28T04:57:25.715Z,100773.16
2019-02-28T04:59:55.335Z,100779.57
2019-02-28T05:02:24.965Z,100783.25
2019-02-28T05:04:57.243Z,100775.77
2019-02-28T05:07:29.618Z,100772.02
2019-02-28T05:09:58.275Z,100773.56
2019-02-28T05:12:27.876Z,100772.02
2019-02-28T05:14:59.903Z,100771.82
2019-02-28T05:17:29.129Z,100771.67
2019-02-28T05:19:58.931Z,100773.50
2019-02-28T05:22:29.998Z,100773.03
2019-02-28T05:24:59.715Z,100777.85
2019-02-28T05:27:34.949Z,100784.49
2019-02-28T05:30:00.964Z,100785.14
2019-02-28T05:32:35.578Z,100783.63
2019-02-28T05:35:04.553Z,100777.09
2019-02-28T05:37:34.152Z,100783.89
2019-02-28T05:40:06.143Z,100778.12
2019-02-28T05:42:36.534Z,100785.91
2019-02-28T05:45:06.896Z,100780.13
2019-02-28T05:47:45.796Z,100787.23
2019-02-28T05:50:08.557Z,100782.26
2019-02-28T05:52:38.248Z,100774.97
2019-02-28T05:55:08.457Z,100778.61
2019-02-28T05:57:43.257Z,100782.64
2019-02-28T06:00:13.445Z,100774.83
2019-02-28T06:02:43.079Z,100777.33
2019-02-28T06:05:13.164Z,100777.39
2019-02-28T06:07:42.974Z,100778.75
2019-02-28T06:10:13.793Z,100780.11
2019-02-28T06:12:44.142Z,100779.64
2019-02-28T06:15:14.586Z,100786.14
2019-02-28T06:17:45.165Z,100784.16
2019-02-28T06:20:16.955Z,100782.00
2019-02-28T06:22:46.164Z,100788.16
2019-02-28T06:25:23.383Z,100784.36
2019-02-28T06:27:50.751Z,100781.86
2019-02-28T06:30:21.437Z,100784.72
2019-02-28T06:32:57.832Z,100788.08
2019-02-28T06:35:27.218Z,100801.19
2019-02-28T06:38:00.964Z,100795.56
2019-02-28T06:40:33.022Z,100796.38
2019-02-28T06:43:03.762Z,100794.88
2019-02-28T06:45:36.722Z,100791.20
2019-02-28T06:48:05.016Z,100791.84
2019-02-28T06:50:34.571Z,100788.88
2019-02-28T06:53:04.570Z,100789.00
2019-02-28T06:55:34.130Z,100791.45
2019-02-28T06:58:03.796Z,100787.64
2019-02-28T07:00:33.454Z,100786.52
2019-02-28T07:03:04.486Z,100786.38
2019-02-28T07:05:34.067Z,100782.39
2019-02-28T07:08:04.034Z,100781.55
2019-02-28T07:10:33.592Z,100779.71
2019-02-28T07:13:04.511Z,100773.56
2019-02-28T07:15:34.995Z,100782.50
2019-02-28T07:18:04.602Z,100791.77
2019-02-28T07:20:35.082Z,100790.10
2019-02-28T07:23:06.037Z,100787.58
2019-02-28T07:25:36.910Z,100779.77
2019-02-28T07:28:06.531Z,100780.70
2019-02-28T07:30:36.133Z,100782.60
2019-02-28T07:33:10.609Z,100787.34
2019-02-28T07:35:37.898Z,100785.67
2019-02-28T07:38:08.289Z,100773.03
2019-02-28T07:40:38.932Z,100774.47
2019-02-28T07:43:12.027Z,100776.30
2019-02-28T07:45:41.459Z,100781.75
2019-02-28T07:48:12.333Z,100791.69
2019-02-28T07:50:43.560Z,100799.97
2019-02-28T07:53:15.157Z,100795.94
2019-02-28T07:55:44.713Z,100801.20
2019-02-28T07:58:14.344Z,100799.47
2019-02-28T08:00:43.908Z,100797.70
2019-02-28T08:03:13.401Z,100789.98
2019-02-28T08:05:43.203Z,100790.20
2019-02-28T08:08:13.874Z,100786.09
2019-02-28T08:10:43.386Z,100786.63
2019-02-28T08:13:13.727Z,100784.47
2019-02-28T08:15:43.333Z,100785.48
2019-02-28T08:18:15.831Z,100791.66
2019-02-28T08:20:44.961Z,100788.04
2019-02-28T08:23:14.463Z,100787.55
2019-02-28T08:25:43.997Z,100792.41
2019-02-28T08:28:13.803Z,100789.20
2019-02-28T08:30:43.340Z,100787.39
2019-02-28T08:33:16.387Z,100791.20
2019-02-28T08:35:44.154Z,100787.64
2019-02-28T08:38:13.639Z,100791.66
2019-02-28T08:40:43.089Z,100790.02
2019-02-28T08:43:13.439Z,100799.16
2019-02-28T08:45:43.674Z,100794.00
2019-02-28T08:48:13.133Z,100795.88
2019-02-28T08:50:42.656Z,100784.38
2019-02-28T08:53:15.494Z,100789.05
2019-02-28T08:55:44.801Z,100785.60
2019-02-28T08:58:14.275Z,100780.77
2019-02-28T09:00:43.792Z,100779.33
2019-02-28T09:03:13.609Z,100781.54
2019-02-28T09:05:43.348Z,100779.77
2019-02-28T09:08:12.938Z,100779.87
2019-02-28T09:10:43.614Z,100777.03
2019-02-28T09:13:14.836Z,100779.70
2019-02-28T09:15:44.375Z,100775.41
2019-02-28T09:18:13.911Z,100775.73
2019-02-28T09:20:45.125Z,100772.45
2019-02-28T09:23:14.767Z,100777.14
2019-02-28T09:25:44.387Z,100780.44
2019-02-28T09:28:14.100Z,100789.75
2019-02-28T09:30:43.755Z,100784.27
2019-02-28T09:33:13.227Z,100784.27
2019-02-28T09:35:46.374Z,100789.34
2019-02-28T09:38:14.006Z,100787.47
2019-02-28T09:40:43.627Z,100775.39
2019-02-28T09:43:13.106Z,100775.05
2019-02-28T09:45:42.759Z,100774.82
2019-02-28T09:48:12.278Z,100774.02
2019-02-28T09:50:43.347Z,100777.02
2019-02-28T09:53:15.650Z,100768.08
2019-02-28T09:55:44.003Z,100770.29
2019-02-28T09:58:13.538Z,100774.41
2019-02-28T10:00:43.301Z,100772.05
2019-02-28T10:03:15.524Z,100765.73
2019-02-28T10:05:45.437Z,100768.69
2019-02-28T10:08:14.896Z,100765.27
2019-02-28T10:10:44.656Z,100760.97
2019-02-28T10:13:14.552Z,100755.41
2019-02-28T10:15:45.388Z,100756.22
2019-02-28T10:18:15.063Z,100755.13
2019-02-28T10:20:44.682Z,100742.36
2019-02-28T10:23:14.193Z,100738.17
2019-02-28T10:25:43.799Z,100734.40
2019-02-28T10:28:13.311Z,100732.56
2019-02-28T10:30:42.781Z,100731.28
2019-02-28T10:33:14.267Z,100727.16
2019-02-28T10:35:43.598Z,100727.88
2019-02-28T10:38:13.098Z,100727.45
2019-02-28T10:40:42.761Z,100721.00
2019-02-28T10:43:15.420Z,100722.78
2019-02-28T10:45:43.623Z,100716.12
2019-02-28T10:48:13.297Z,100709.48
2019-02-28T10:50:42.880Z,100709.09
2019-02-28T10:53:12.419Z,100713.11
2019-02-28T10:55:42.475Z,100718.13
2019-02-28T10:58:12.439Z,100713.17
2019-02-28T11:00:43.924Z,100713.44
2019-02-28T11:03:13.492Z,100720.84
2019-02-28T11:05:44.374Z,100723.98
2019-02-28T11:08:16.704Z,100722.58
2019-02-28T11:10:46.052Z,100723.97
2019-02-28T11:13:17.052Z,100733.00
2019-02-28T11:15:48.328Z,100732.45
2019-02-28T11:18:18.135Z,100734.91
2019-02-28T11:20:48.713Z,100718.58
2019-02-28T11:23:18.654Z,100709.80
2019-02-28T11:25:48.155Z,100707.99
2019-02-28T11:28:17.655Z,100712.13
2019-02-28T11:30:48.006Z,100717.55
2019-02-28T11:33:17.733Z,100715.44
2019-02-28T11:35:47.233Z,100722.78
2019-02-28T11:38:20.306Z,100727.98
2019-02-28T11:40:54.687Z,100723.14
2019-02-28T11:43:20.144Z,100729.34
2019-02-28T11:45:49.667Z,100720.70
2019-02-28T11:48:20.492Z,100711.99
2019-02-28T11:50:50.935Z,100716.82
2019-02-28T11:53:20.514Z,100725.23
2019-02-28T11:55:53.225Z,100723.50
2019-02-28T11:58:21.721Z,100724.48
2019-02-28T12:00:51.240Z,100718.09
2019-02-28T12:03:20.731Z,100713.82
2019-02-28T12:05:51.195Z,100715.40
2019-02-28T12:08:22.390Z,100715.52
2019-02-28T12:10:52.077Z,100716.05
2019-02-28T12:13:21.685Z,100707.22
2019-02-28T12:15:51.432Z,100709.80
2019-02-28T12:18:21.033Z,100708.20
2019-02-28T12:20:50.609Z,100709.28
2019-02-28T12:23:23.360Z,100710.53
2019-02-28T12:25:51.360Z,100706.20
2019-02-28T12:28:20.952Z,100699.73
2019-02-28T12:30:50.559Z,100689.45
2019-02-28T12:33:23.127Z,100682.33
2019-02-28T12:35:51.319Z,100685.03
2019-02-28T12:38:20.946Z,100681.19
2019-02-28T12:40:50.634Z,100683.07
2019-02-28T12:43:20.436Z,100680.50
2019-02-28T12:45:49.924Z,100676.48
2019-02-28T12:48:19.543Z,100669.34
2019-02-28T12:50:49.084Z,100668.48
2019-02-28T12:53:24.051Z,100664.95
2019-02-28T12:55:49.739Z,100658.68
2019-02-28T12:58:19.284Z,100662.50
2019-02-28T13:00:48.914Z,100659.09
2019-02-28T13:03:20.261Z,100655.20
2019-02-28T13:05:49.778Z,100650.17
2019-02-28T13:08:19.408Z,100644.66
2019-02-28T13:10:48.928Z,100647.88
2019-02-28T13:13:21.640Z,100653.06
2019-02-28T13:15:49.890Z,100653.64
2019-02-28T13:18:19.662Z,100654.31
2019-02-28T13:20:49.341Z,100653.64
2019-02-28T13:23:18.891Z,100660.34
2019-02-28T13:25:48.457Z,100659.56
2019-02-28T13:28:22.410Z,100660.77
2019-02-28T13:30:51.498Z,100659.66
2019-02-28T13:33:20.598Z,100662.17
2019-02-28T13:35:50.080Z,100672.95
2019-02-28T13:38:20.054Z,100675.56
2019-02-28T13:40:50.234Z,100669.09
2019-02-28T13:43:22.683Z,100664.30
2019-02-28T13:45:55.947Z,100659.91
2019-02-28T13:48:26.195Z,100660.35
2019-02-28T13:50:53.796Z,100654.92
2019-02-28T13:53:23.655Z,100654.97
2019-02-28T13:55:57.886Z,100645.63
2019-02-28T13:58:26.994Z,100643.03
2019-02-28T14:00:56.590Z,100654.08
2019-02-28T14:03:26.185Z,100652.75
2019-02-28T14:05:55.688Z,100652.30
2019-02-28T14:08:25.143Z,100656.04
2019-02-28T14:10:55.287Z,100648.23
2019-02-28T14:13:24.723Z,100647.72
2019-02-28T14:15:54.223Z,100646.78
2019-02-28T14:18:23.812Z,100644.25
2019-02-28T14:20:53.579Z,100632.98
2019-02-28T14:23:23.595Z,100629.95
2019-02-28T14:25:53.154Z,100621.45
2019-02-28T14:28:22.655Z,100628.71
2019-02-28T14:30:54.417Z,100619.97
2019-02-28T14:33:23.947Z,100617.62
2019-02-28T14:35:53.548Z,100619.48
2019-02-28T14:38:23.131Z,100624.44
2019-02-28T14:40:53.719Z,100619.78
2019-02-28T14:43:23.186Z,100625.22
2019-02-28T14:45:52.870Z,100621.20
2019-02-28T14:48:22.477Z,100615.83
2019-02-28T14:50:54.138Z,100624.73
2019-02-28T14:53:23.373Z,100612.76
2019-02-28T14:55:52.951Z,100611.44
2019-02-28T14:58:22.566Z,100619.97
2019-02-28T15:00:52.141Z,100622.44
2019-02-28T15:03:21.916Z,100617.17
2019-02-28T15:05:52.366Z,100620.19
2019-02-28T15:08:22.951Z,100615.04
2019-02-28T15:10:53.289Z,100622.61
2019-02-28T15:13:23.136Z,100617.14
2019-02-28T15:15:53.419Z,100615.08
2019-02-28T15:18:23.958Z,100627.29
2019-02-28T15:20:53.618Z,100620.63
2019-02-28T15:23:23.325Z,100618.12
2019-02-28T15:25:54.044Z,100617.56
2019-02-28T15:28:24.581Z,100614.87
2019-02-28T15:30:54.555Z,100617.42
2019-02-28T15:33:27.466Z,100606.69
2019-02-28T15:35:55.957Z,100609.83
2019-02-28T15:38:25.663Z,100613.90
2019-02-28T15:40:58.425Z,100599.65
2019-02-28T15:43:27.247Z,100606.13
2019-02-28T15:45:56.939Z,100608.91
2019-02-28T15:48:26.771Z,100605.98
2019-02-28T15:50:56.632Z,100596.02
2019-02-28T15:53:26.504Z,100594.34
2019-02-28T15:55:56.451Z,100599.36
2019-02-28T15:58:26.411Z,100601.64
2019-02-28T16:00:57.534Z,100607.95
2019-02-28T16:03:29.645Z,100604.03
2019-02-28T16:06:23.817Z,100606.27
2019-02-28T16:08:54.375Z,100610.61
2019-02-28T16:11:24.415Z,100628.84
2019-02-28T16:14:01.179Z,100631.73
2019-02-28T16:16:31.119Z,100628.66
2019-02-28T16:19:21.935Z,100636.53
2019-02-28T16:21:53.918Z,100641.17
2019-02-28T16:24:23.801Z,100640.59
2019-02-28T16:26:56.761Z,100649.43
2019-02-28T16:29:26.420Z,100636.36
2019-02-28T16:32:14.132Z,100639.79
2019-02-28T16:34:48.228Z,100651.89
2019-02-28T16:37:18.975Z,100648.62
2019-02-28T16:39:49.812Z,100641.00
2019-02-28T16:42:20.297Z,100649.03
2019-02-28T16:44:52.325Z,100637.11
2019-02-28T16:47:24.490Z,100630.63
2019-02-28T16:49:54.151Z,100642.91
2019-02-28T16:52:24.103Z,100647.54
2019-02-28T16:54:56.324Z,100632.84
2019-02-28T16:57:26.497Z,100643.66
2019-02-28T16:59:56.965Z,100649.00
2019-02-28T17:02:29.334Z,100650.86
2019-02-28T17:04:59.687Z,100644.70
2019-02-28T17:07:30.260Z,100650.34
2019-02-28T17:10:01.698Z,100645.41
2019-02-28T17:13:02.897Z,100645.06
2019-02-28T17:15:55.877Z,100652.23
2019-02-28T17:18:25.090Z,100655.04
2019-02-28T17:20:55.117Z,100660.41
2019-02-28T17:23:25.150Z,100660.17
2019-02-28T17:25:56.575Z,100655.13
2019-02-28T17:28:49.755Z,100658.67
2019-02-28T17:31:37.710Z,100652.27
2019-02-28T17:34:08.046Z,100656.73
2019-02-28T17:36:38.104Z,100650.70
2019-02-28T17:39:11.355Z,100645.05
2019-02-28T17:41:40.532Z,100649.59
2019-02-28T17:44:34.021Z,100657.16
2019-02-28T17:47:06.608Z,100652.34
2019-02-28T17:50:20.914Z,100656.20
2019-02-28T17:53:27.684Z,100650.75
2019-02-28T17:56:28.343Z,100640.94
2019-02-28T17:59:39.021Z,100642.28
2019-02-28T18:02:38.187Z,100638.26
2019-02-28T18:05:37.639Z,100635.52
2019-02-28T18:08:23.799Z,100623.42
2019-02-28T18:12:01.643Z,100618.66
2019-02-28T18:15:09.140Z,100621.50
2019-02-28T18:18:19.645Z,100619.72
2019-02-28T18:21:41.868Z,100614.03
2019-02-28T18:24:50.756Z,100619.31
2019-02-28T18:28:03.418Z,100619.73
2019-02-28T18:31:14.002Z,100606.72
2019-02-28T18:33:49.595Z,100618.45
2019-02-28T18:36:21.553Z,100612.86
2019-02-28T18:38:51.455Z,100610.41
2019-02-28T18:41:21.447Z,100601.36
2019-02-28T18:43:51.537Z,100606.23
2019-02-28T18:46:21.563Z,100605.20
2019-02-28T18:48:54.468Z,100601.01
2019-02-28T18:51:23.164Z,100596.56
2019-02-28T18:53:53.238Z,100595.52
2019-02-28T18:56:23.376Z,100595.14
2019-02-28T18:58:53.528Z,100598.56
2019-02-28T19:01:23.665Z,100596.07
2019-02-28T19:03:53.836Z,100589.09
2019-02-28T19:06:23.781Z,100591.03
2019-02-28T19:08:53.910Z,100601.52
2019-02-28T19:11:23.895Z,100597.34
2019-02-28T19:13:54.010Z,100595.31
2019-02-28T19:16:24.051Z,100599.11
2019-02-28T19:18:54.148Z,100596.91
2019-02-28T19:21:24.412Z,100593.95
2019-02-28T19:23:55.727Z,100590.23
2019-02-28T19:26:25.871Z,100585.11
2019-02-28T19:28:55.906Z,100581.92
2019-02-28T19:31:26.036Z,100585.11
2019-02-28T19:33:56.030Z,100590.10
2019-02-28T19:36:26.120Z,100590.55
2019-02-28T19:38:56.166Z,100588.45
2019-02-28T19:41:26.023Z,100588.58
2019-02-28T19:43:56.220Z,100588.61
2019-02-28T19:46:26.252Z,100587.23
2019-02-28T19:48:56.816Z,100589.09
2019-02-28T19:51:26.815Z,100584.56
2019-02-28T19:53:56.920Z,100582.90
2019-02-28T19:56:26.954Z,100585.26
2019-02-28T19:58:56.984Z,100580.44
2019-02-28T20:01:27.015Z,100576.30
2019-02-28T20:03:58.098Z,100575.28
2019-02-28T20:06:28.284Z,100565.59
2019-02-28T20:08:58.386Z,100563.74
2019-02-28T20:11:28.480Z,100566.83
2019-02-28T20:13:58.478Z,100564.34
2019-02-28T20:16:28.441Z,100557.27
2019-02-28T20:18:58.528Z,100561.70
2019-02-28T20:21:28.568Z,100556.48
2019-02-28T20:23:58.713Z,100557.56
2019-02-28T20:26:28.844Z,100554.97
2019-02-28T20:28:59.015Z,100552.43
2019-02-28T20:31:29.056Z,100549.79
2019-02-28T20:33:59.900Z,100549.16
2019-02-28T20:36:29.978Z,100559.16
2019-02-28T20:38:59.845Z,100558.94
2019-02-28T20:41:29.782Z,100552.16
2019-02-28T20:43:59.894Z,100548.45
2019-02-28T20:46:30.108Z,100544.44
2019-02-28T20:49:00.228Z,100539.27
2019-02-28T20:51:30.268Z,100548.19
2019-02-28T20:54:00.285Z,100542.74
2019-02-28T20:56:30.281Z,100542.78
2019-02-28T20:59:00.184Z,100540.33
2019-02-28T21:01:30.219Z,100550.56
2019-02-28T21:04:00.289Z,100551.58
2019-02-28T21:06:30.345Z,100543.69
2019-02-28T21:09:01.798Z,100551.58
2019-02-28T21:11:31.885Z,100547.98
2019-02-28T21:14:01.971Z,100540.69
2019-02-28T21:16:33.054Z,100538.75
2019-02-28T21:19:03.037Z,100540.05
2019-02-28T21:21:34.110Z,100540.75
2019-02-28T21:24:04.324Z,100539.86
2019-02-28T21:26:35.529Z,100542.91
2019-02-28T21:29:05.635Z,100542.55
2019-02-28T21:31:35.784Z,100536.50
2019-02-28T21:34:05.878Z,100535.53
2019-02-28T21:36:35.774Z,100533.99
2019-02-28T21:39:07.929Z,100529.84
2019-02-28T21:41:37.968Z,100530.66
2019-02-28T21:44:07.767Z,100529.07
2019-02-28T21:46:37.995Z,100528.27
2019-02-28T21:49:08.001Z,100532.84
2019-02-28T21:51:37.649Z,100527.42
2019-02-28T21:54:08.144Z,100528.86
2019-02-28T21:56:39.118Z,100528.69
2019-02-28T21:59:08.789Z,100523.95
2019-02-28T22:01:38.779Z,100522.22
2019-02-28T22:04:08.513Z,100522.23
2019-02-28T22:06:38.077Z,100518.55
2019-02-28T22:09:09.174Z,100518.08
2019-02-28T22:11:39.323Z,100510.88
2019-02-28T22:14:09.832Z,100519.84
2019-02-28T22:16:39.550Z,100512.50
2019-02-28T22:19:10.285Z,100515.50
2019-02-28T22:21:39.933Z,100514.61
2019-02-28T22:24:09.636Z,100511.75
2019-02-28T22:26:39.195Z,100509.55
2019-02-28T22:29:08.745Z,100509.04
2019-02-28T22:31:51.101Z,100508.63
2019-02-28T22:34:54.549Z,100504.93
2019-02-28T22:37:24.427Z,100504.60
2019-02-28T22:39:53.929Z,100499.80
2019-02-28T22:42:23.494Z,100496.30
2019-02-28T22:44:53.034Z,100494.63
2019-02-28T22:47:22.769Z,100494.50
2019-02-28T22:49:52.350Z,100491.08
2019-02-28T22:52:21.847Z,100487.76
2019-02-28T22:54:51.541Z,100489.91
2019-02-28T22:57:21.366Z,100490.02
2019-02-28T22:59:50.932Z,100489.37
2019-02-28T23:02:20.916Z,100486.20
2019-02-28T23:04:50.509Z,100480.52
2019-02-28T23:07:20.113Z,100481.34
2019-02-28T23:09:49.715Z,100478.36
2019-02-28T23:12:19.314Z,100480.75
2019-02-28T23:14:48.805Z,100472.48
2019-02-28T23:17:18.450Z,100465.23
2019-02-28T23:19:48.056Z,100462.78
2019-02-28T23:22:17.655Z,100461.72
2019-02-28T23:24:47.158Z,100456.17
2019-02-28T23:27:20.223Z,100449.98
2019-02-28T23:30:16.510Z,100442.69
2019-02-28T23:33:02.363Z,100442.61
2019-02-28T23:35:37.543Z,100442.00
2019-02-28T23:38:07.166Z,100440.58
2019-02-28T23:40:36.720Z,100444.28
2019-02-28T23:43:06.388Z,100433.96
2019-02-28T23:45:35.955Z,100433.25
2019-02-28T23:48:05.603Z,100429.87
2019-02-28T23:50:35.152Z,100429.26
2019-02-28T23:53:04.685Z,100423.16
2019-02-28T23:55:34.150Z,100420.63
2019-02-28T23:58:05.005Z,100419.06
